Terminal Aerodrome Forecast
Issued by NWS

Home | Current Version | Previous Version | Text Only | Print | Product List | Glossary On
Versions: 1 2 3 4 5 6 7 8 9 10 11 12 13 14 15 16 17
867
FTUS43 KSGF 201727
TAFBBG
TAF
KBBG 201727Z 2018/2118 21005KT P6SM SCT150
     FM202000 VRB05KT P6SM VCTS BKN050CB
     FM210100 15004KT P6SM SCT200=

USA.gov is the U.S. government's official web portal to all federal, state and local government web resources and services.